Methane Princess — V7VN4 — position and weather

sailwx.info

Track history (hours):
 
Tides and Currents Weather Stations Pressure Air Temp Water Temp Dewpoint Dewpoint Depression Visibility Wind Speed Wind Dir Waves Ship Positions

Methane Princess

Last reported at 2017-Sep-22 00:58 UTC. Time now 2017-Oct-18 09:41 UTC.
Position N 34°52' W 007°28'.
Warning: this ship's position is 26 days out of date.

Length 266 m; draft 9.4 m.

Type: Tanker. MMSI: 538004164.

Date/timePositionNaut miles runAvg speedWind from/ knotsBaromVisibWave heightAir tempDewpointWater temp
2017-Sep-22 00:58N 34°52' W 007°28'817.2
2017-Sep-22 00:29N 34°58' W 007°22'817.0
2017-Sep-22 00:00N 35°05' W 007°16'1016.7
2017-Sep-21 23:26N 35°12' W 007°08'31515.6
2017-Sep-21 03:18N 36°59' W 001°01'517.5
2017-Sep-21 03:00N 37°02' W 000°56'917.5
2017-Sep-21 02:30N 37°06' W 000°46'917.2
2017-Sep-21 01:57N 37°11' W 000°36'817.2
2017-Sep-21 01:27N 37°16' W 000°27'816.7
2017-Sep-21 01:00N 37°20' W 000°19'816.7
2017-Sep-21 00:30N 37°24' W 000°10'916.8
2017-Sep-21 00:00N 37°29' W 000°01'816.6
2017-Sep-20 23:30N 37°36' E 000°04'816.5
2017-Sep-20 23:00N 37°44' E 000°08'816.4
2017-Sep-20 22:30N 37°51' E 000°12'815.9
2017-Sep-20 22:00N 37°58' E 000°16'815.9
2017-Sep-20 21:30N 38°06' E 000°20'816.0
2017-Sep-20 21:00N 38°13' E 000°24'815.9
2017-Sep-20 20:30N 38°20' E 000°28'815.8
2017-Sep-20 20:00N 38°27' E 000°32'815.7
2017-Sep-20 19:30N 38°35' E 000°37'915.8
2017-Sep-20 18:54N 38°44' E 000°41'2615.7
2017-Sep-20 17:14N 39°08' E 000°53'416.0
2017-Sep-20 17:00N 39°11' E 000°55'3916.0
2017-Sep-20 14:34N 39°47' E 001°17'915.8
2017-Sep-20 14:00N 39°55' E 001°21'815.6
2017-Sep-20 13:30N 40°02' E 001°25'815.8
2017-Sep-20 13:00N 40°09' E 001°31'815.8
2017-Sep-20 12:30N 40°16' E 001°35'815.6
2017-Sep-20 12:00N 40°23' E 001°39'815.6
2017-Sep-20 11:30N 40°30' E 001°43'815.5
2017-Sep-20 11:00N 40°37' E 001°47'815.5
2017-Sep-20 10:29N 40°45' E 001°51'815.9
2017-Sep-20 10:00N 40°52' E 001°55'816.4
2017-Sep-20 09:30N 40°59' E 001°59'815.9
2017-Sep-20 09:00N 41°07' E 002°03'814.4
2017-Sep-20 08:28N 41°13' E 002°09'510.5
2017-Sep-20 08:01N 41°18' E 002°10'14 0.4
2017-Sep-19 01:09N 41°04' E 002°07'210.9
2017-Sep-19 01:00N 41°04' E 002°05'5 8.0
2017-Sep-19 00:24N 40°59' E 002°06'511.0
2017-Sep-18 23:59N 40°57' E 002°00'511.0
2017-Sep-18 23:30N 40°53' E 001°55'5 9.6
2017-Sep-18 22:58N 40°48' E 001°56'510.0
2017-Sep-18 22:30N 40°44' E 001°54'611.3
2017-Sep-18 22:00N 40°39' E 001°49'611.5
2017-Sep-18 21:30N 40°34' E 001°46'611.1
2017-Sep-18 21:00N 40°29' E 001°43'611.2
2017-Sep-18 20:30N 40°24' E 001°40'511.0
2017-Sep-18 20:00N 40°19' E 001°37'510.9
2017-Sep-18 19:30N 40°14' E 001°34'510.6
2017-Sep-18 19:00N 40°09' E 001°31'510.5
2017-Sep-18 18:30N 40°04' E 001°28'510.4
2017-Sep-18 18:00N 39°60' E 001°25'510.1
2017-Sep-18 17:30N 39°55' E 001°23'510.1
2017-Sep-18 17:00N 39°50' E 001°20'610.1
2017-Sep-18 16:27N 39°45' E 001°17'10810.8
2017-Sep-18 06:30N 38°07' E 000°21'29511.2
2017-Sep-17 04:15N 36°00' W 005°13'414.1
2017-Sep-17 04:00N 35°60' W 005°17'714.9
2017-Sep-17 03:30N 35°58' W 005°26'41212.1
2017-Sep-15 17:24N 31°22' W 011°34'711.3
2017-Sep-15 16:48N 31°17' W 011°39'1611.4
2017-Sep-15 15:24N 31°06' W 011°53'411.4
2017-Sep-15 15:01N 31°03' W 011°56'611.5
2017-Sep-15 14:30N 30°59' W 012°01'611.5
2017-Sep-15 13:57N 30°54' W 012°07'911.6
2017-Sep-15 13:11N 30°48' W 012°14'411.5
2017-Sep-15 12:50N 30°45' W 012°17'411.4
2017-Sep-15 12:29N 30°42' W 012°20'611.4
2017-Sep-15 12:01N 30°38' W 012°25'1111.2
2017-Sep-15 11:03N 30°31' W 012°34'011.2
2017-Sep-15 11:00N 30°31' W 012°34'611.2
2017-Sep-15 10:28N 30°26' W 012°39'511.2
2017-Sep-15 10:00N 30°23' W 012°43'611.2
2017-Sep-15 09:31N 30°19' W 012°48'611.4
2017-Sep-15 09:00N 30°15' W 012°53'611.2
2017-Sep-15 08:31N 30°11' W 012°57'611.2
2017-Sep-15 08:00N 30°07' W 013°02'611.0
2017-Sep-15 07:30N 30°04' W 013°07'510.9
2017-Sep-15 07:00N 29°60' W 013°12'510.7
2017-Sep-15 06:30N 29°56' W 013°16'510.9
2017-Sep-15 06:00N 29°53' W 013°21'510.9
2017-Sep-15 05:30N 29°49' W 013°25'510.9
2017-Sep-15 05:00N 29°45' W 013°30'510.7
2017-Sep-15 04:30N 29°42' W 013°34'510.9
2017-Sep-15 04:00N 29°38' W 013°39'611.0
2017-Sep-15 03:26N 29°33' W 013°44'611.3
2017-Sep-15 02:55N 29°29' W 013°48'511.4
2017-Sep-15 02:29N 29°25' W 013°52'611.6
2017-Sep-15 02:00N 29°21' W 013°56'611.7
2017-Sep-15 01:30N 29°17' W 014°01'611.6
2017-Sep-15 01:00N 29°13' W 014°05'611.5
2017-Sep-15 00:30N 29°09' W 014°10'611.3
2017-Sep-15 00:00N 29°05' W 014°15'711.4
2017-Sep-14 23:26N 29°00' W 014°20'511.5
2017-Sep-14 23:00N 28°57' W 014°24'611.6
2017-Sep-14 22:31N 28°53' W 014°29'611.5
2017-Sep-14 22:00N 28°49' W 014°34'611.4
2017-Sep-14 21:28N 28°44' W 014°38'511.3
2017-Sep-14 21:01N 28°40' W 014°42'611.4
2017-Sep-14 20:31N 28°36' W 014°47'611.3
2017-Sep-14 20:01N 28°33' W 014°52'611.3
2017-Sep-14 19:31N 28°29' W 014°57'611.9
2017-Sep-14 19:01N 28°24' W 015°01'611.8
2017-Sep-14 18:31N 28°20' W 015°06'611.8
2017-Sep-14 18:00N 28°16' W 015°11'611.7
2017-Sep-14 17:30N 28°12' W 015°15'611.2
2017-Sep-14 17:00N 28°07' W 015°19'2 3.0
2017-Sep-14 16:30N 28°07' W 015°21'0 0.7
2017-Sep-14 16:00N 28°07' W 015°21'2 3.5
2017-Sep-14 15:30N 28°07' W 015°19'4 8.8
2017-Sep-14 15:00N 28°06' W 015°14'611.2
2017-Sep-14 14:30N 28°04' W 015°08'611.3
2017-Sep-14 14:00N 28°03' W 015°02'510.3
2017-Sep-14 13:30N 27°59' W 014°58'711.0
2017-Sep-14 12:52N 27°52' W 015°01'410.8
2017-Sep-14 12:30N 27°48' W 015°02'510.3
2017-Sep-14 11:59N 27°44' W 015°05'3110.3
2017-Sep-14 08:59N 27°16' W 015°21'7111.4
2017-Sep-14 02:46N 26°14' W 015°58'  
Track history (hours):
 
Tides and Currents Weather Stations Pressure Air Temp Water Temp Dewpoint Dewpoint Depression Visibility Wind Speed Wind Dir Waves Ship Positions

Methane Princess

Last reported at 2017-Sep-22 00:58 UTC. Time now 2017-Oct-18 09:41 UTC.
Position N 34°52' W 007°28'.
Warning: this ship's position is 26 days out of date.

Length 266 m; draft 9.4 m.

Type: Tanker. MMSI: 538004164.

Date/timePositionNaut miles runAvg speedWind from/ knotsBaromVisibWave heightAir tempDewpointWater temp
2017-Sep-22 00:58N 34°52' W 007°28'817.2
2017-Sep-22 00:29N 34°58' W 007°22'817.0
2017-Sep-22 00:00N 35°05' W 007°16'1016.7
2017-Sep-21 23:26N 35°12' W 007°08'31515.6
2017-Sep-21 03:18N 36°59' W 001°01'517.5
2017-Sep-21 03:00N 37°02' W 000°56'917.5
2017-Sep-21 02:30N 37°06' W 000°46'917.2
2017-Sep-21 01:57N 37°11' W 000°36'817.2
2017-Sep-21 01:27N 37°16' W 000°27'816.7
2017-Sep-21 01:00N 37°20' W 000°19'816.7
2017-Sep-21 00:30N 37°24' W 000°10'916.8
2017-Sep-21 00:00N 37°29' W 000°01'816.6
2017-Sep-20 23:30N 37°36' E 000°04'816.5
2017-Sep-20 23:00N 37°44' E 000°08'816.4
2017-Sep-20 22:30N 37°51' E 000°12'815.9
2017-Sep-20 22:00N 37°58' E 000°16'815.9
2017-Sep-20 21:30N 38°06' E 000°20'816.0
2017-Sep-20 21:00N 38°13' E 000°24'815.9
2017-Sep-20 20:30N 38°20' E 000°28'815.8
2017-Sep-20 20:00N 38°27' E 000°32'815.7
2017-Sep-20 19:30N 38°35' E 000°37'915.8
2017-Sep-20 18:54N 38°44' E 000°41'2615.7
2017-Sep-20 17:14N 39°08' E 000°53'416.0
2017-Sep-20 17:00N 39°11' E 000°55'3916.0
2017-Sep-20 14:34N 39°47' E 001°17'915.8
2017-Sep-20 14:00N 39°55' E 001°21'815.6
2017-Sep-20 13:30N 40°02' E 001°25'815.8
2017-Sep-20 13:00N 40°09' E 001°31'815.8
2017-Sep-20 12:30N 40°16' E 001°35'815.6
2017-Sep-20 12:00N 40°23' E 001°39'815.6
2017-Sep-20 11:30N 40°30' E 001°43'815.5
2017-Sep-20 11:00N 40°37' E 001°47'815.5
2017-Sep-20 10:29N 40°45' E 001°51'815.9
2017-Sep-20 10:00N 40°52' E 001°55'816.4
2017-Sep-20 09:30N 40°59' E 001°59'815.9
2017-Sep-20 09:00N 41°07' E 002°03'814.4
2017-Sep-20 08:28N 41°13' E 002°09'510.5
2017-Sep-20 08:01N 41°18' E 002°10'14 0.4
2017-Sep-19 01:09N 41°04' E 002°07'210.9
2017-Sep-19 01:00N 41°04' E 002°05'5 8.0
2017-Sep-19 00:24N 40°59' E 002°06'511.0
2017-Sep-18 23:59N 40°57' E 002°00'511.0
2017-Sep-18 23:30N 40°53' E 001°55'5 9.6
2017-Sep-18 22:58N 40°48' E 001°56'510.0
2017-Sep-18 22:30N 40°44' E 001°54'611.3
2017-Sep-18 22:00N 40°39' E 001°49'611.5
2017-Sep-18 21:30N 40°34' E 001°46'611.1
2017-Sep-18 21:00N 40°29' E 001°43'611.2
2017-Sep-18 20:30N 40°24' E 001°40'511.0
2017-Sep-18 20:00N 40°19' E 001°37'510.9
2017-Sep-18 19:30N 40°14' E 001°34'510.6
2017-Sep-18 19:00N 40°09' E 001°31'510.5
2017-Sep-18 18:30N 40°04' E 001°28'510.4
2017-Sep-18 18:00N 39°60' E 001°25'510.1
2017-Sep-18 17:30N 39°55' E 001°23'510.1
2017-Sep-18 17:00N 39°50' E 001°20'610.1
2017-Sep-18 16:27N 39°45' E 001°17'10810.8
2017-Sep-18 06:30N 38°07' E 000°21'29511.2
2017-Sep-17 04:15N 36°00' W 005°13'414.1
2017-Sep-17 04:00N 35°60' W 005°17'714.9
2017-Sep-17 03:30N 35°58' W 005°26'41212.1
2017-Sep-15 17:24N 31°22' W 011°34'711.3
2017-Sep-15 16:48N 31°17' W 011°39'1611.4
2017-Sep-15 15:24N 31°06' W 011°53'411.4
2017-Sep-15 15:01N 31°03' W 011°56'611.5
2017-Sep-15 14:30N 30°59' W 012°01'611.5
2017-Sep-15 13:57N 30°54' W 012°07'911.6
2017-Sep-15 13:11N 30°48' W 012°14'411.5
2017-Sep-15 12:50N 30°45' W 012°17'411.4
2017-Sep-15 12:29N 30°42' W 012°20'611.4
2017-Sep-15 12:01N 30°38' W 012°25'1111.2
2017-Sep-15 11:03N 30°31' W 012°34'011.2
2017-Sep-15 11:00N 30°31' W 012°34'611.2
2017-Sep-15 10:28N 30°26' W 012°39'511.2
2017-Sep-15 10:00N 30°23' W 012°43'611.2
2017-Sep-15 09:31N 30°19' W 012°48'611.4
2017-Sep-15 09:00N 30°15' W 012°53'611.2
2017-Sep-15 08:31N 30°11' W 012°57'611.2
2017-Sep-15 08:00N 30°07' W 013°02'611.0
2017-Sep-15 07:30N 30°04' W 013°07'510.9
2017-Sep-15 07:00N 29°60' W 013°12'510.7
2017-Sep-15 06:30N 29°56' W 013°16'510.9
2017-Sep-15 06:00N 29°53' W 013°21'510.9
2017-Sep-15 05:30N 29°49' W 013°25'510.9
2017-Sep-15 05:00N 29°45' W 013°30'510.7
2017-Sep-15 04:30N 29°42' W 013°34'510.9
2017-Sep-15 04:00N 29°38' W 013°39'611.0
2017-Sep-15 03:26N 29°33' W 013°44'611.3
2017-Sep-15 02:55N 29°29' W 013°48'511.4
2017-Sep-15 02:29N 29°25' W 013°52'611.6
2017-Sep-15 02:00N 29°21' W 013°56'611.7
2017-Sep-15 01:30N 29°17' W 014°01'611.6
2017-Sep-15 01:00N 29°13' W 014°05'611.5
2017-Sep-15 00:30N 29°09' W 014°10'611.3
2017-Sep-15 00:00N 29°05' W 014°15'711.4
2017-Sep-14 23:26N 29°00' W 014°20'511.5
2017-Sep-14 23:00N 28°57' W 014°24'611.6
2017-Sep-14 22:31N 28°53' W 014°29'611.5
2017-Sep-14 22:00N 28°49' W 014°34'611.4
2017-Sep-14 21:28N 28°44' W 014°38'511.3
2017-Sep-14 21:01N 28°40' W 014°42'611.4
2017-Sep-14 20:31N 28°36' W 014°47'611.3
2017-Sep-14 20:01N 28°33' W 014°52'611.3
2017-Sep-14 19:31N 28°29' W 014°57'611.9
2017-Sep-14 19:01N 28°24' W 015°01'611.8
2017-Sep-14 18:31N 28°20' W 015°06'611.8
2017-Sep-14 18:00N 28°16' W 015°11'611.7
2017-Sep-14 17:30N 28°12' W 015°15'611.2
2017-Sep-14 17:00N 28°07' W 015°19'2 3.0
2017-Sep-14 16:30N 28°07' W 015°21'0 0.7
2017-Sep-14 16:00N 28°07' W 015°21'2 3.5
2017-Sep-14 15:30N 28°07' W 015°19'4 8.8
2017-Sep-14 15:00N 28°06' W 015°14'611.2
2017-Sep-14 14:30N 28°04' W 015°08'611.3
2017-Sep-14 14:00N 28°03' W 015°02'510.3
2017-Sep-14 13:30N 27°59' W 014°58'711.0
2017-Sep-14 12:52N 27°52' W 015°01'410.8
2017-Sep-14 12:30N 27°48' W 015°02'510.3
2017-Sep-14 11:59N 27°44' W 015°05'3110.3
2017-Sep-14 08:59N 27°16' W 015°21'7111.4
2017-Sep-14 02:46N 26°14' W 015°58'  

Dump ship's entire track history